sensor_id;sensor_type;location;lat;lon;timestamp;pressure;altitude;pressure_sealevel;temperature;humidity
25510;BME280;13413;52.336;21.200;2022-07-29T00:01:54;101037.36;;;20.19;55.15
25510;BME280;13413;52.336;21.200;2022-07-29T00:05:14;101036.32;;;20.15;55.24
25510;BME280;13413;52.336;21.200;2022-07-29T00:08:33;101039.75;;;20.10;55.24
25510;BME280;13413;52.336;21.200;2022-07-29T00:11:54;101039.13;;;20.12;55.36
25510;BME280;13413;52.336;21.200;2022-07-29T00:15:14;101035.70;;;20.06;55.41
25510;BME280;13413;52.336;21.200;2022-07-29T00:18:33;101036.02;;;20.01;55.45
25510;BME280;13413;52.336;21.200;2022-07-29T00:21:51;101036.63;;;20.03;55.49
25510;BME280;13413;52.336;21.200;2022-07-29T00:25:13;101039.39;;;20.00;55.44
25510;BME280;13413;52.336;21.200;2022-07-29T00:29:55;101034.09;;;20.01;55.54
25510;BME280;13413;52.336;21.200;2022-07-29T00:34:23;101032.59;;;20.01;55.59
25510;BME280;13413;52.336;21.200;2022-07-29T00:38:51;101039.71;;;20.00;55.61
25510;BME280;13413;52.336;21.200;2022-07-29T00:43:18;101044.16;;;20.04;55.69
25510;BME280;13413;52.336;21.200;2022-07-29T00:47:45;101044.50;;;20.03;55.68
25510;BME280;13413;52.336;21.200;2022-07-29T00:52:12;101041.21;;;19.91;55.65
25510;BME280;13413;52.336;21.200;2022-07-29T00:56:40;101039.13;;;19.85;55.89
25510;BME280;13413;52.336;21.200;2022-07-29T01:01:07;101035.90;;;19.85;55.97
25510;BME280;13413;52.336;21.200;2022-07-29T01:05:35;101032.40;;;19.83;56.08
25510;BME280;13413;52.336;21.200;2022-07-29T01:10:03;101027.94;;;19.82;56.05
25510;BME280;13413;52.336;21.200;2022-07-29T01:14:32;101029.06;;;19.77;56.03
25510;BME280;13413;52.336;21.200;2022-07-29T01:23:45;101022.98;;;19.75;56.19
25510;BME280;13413;52.336;21.200;2022-07-29T01:28:39;101022.30;;;19.71;56.19
25510;BME280;13413;52.336;21.200;2022-07-29T01:33:11;101024.63;;;19.65;56.31
25510;BME280;13413;52.336;21.200;2022-07-29T01:37:44;101021.20;;;19.66;56.32
25510;BME280;13413;52.336;21.200;2022-07-29T01:42:19;101023.58;;;19.63;56.34
25510;BME280;13413;52.336;21.200;2022-07-29T01:46:51;101022.20;;;19.55;56.46
25510;BME280;13413;52.336;21.200;2022-07-29T01:51:24;101024.20;;;19.50;56.54
25510;BME280;13413;52.336;21.200;2022-07-29T01:55:53;101026.01;;;19.43;56.67
25510;BME280;13413;52.336;21.200;2022-07-29T02:00:21;101030.09;;;19.38;56.75
25510;BME280;13413;52.336;21.200;2022-07-29T02:04:50;101033.30;;;19.40;56.76
25510;BME280;13413;52.336;21.200;2022-07-29T02:09:19;101033.34;;;19.34;56.77
25510;BME280;13413;52.336;21.200;2022-07-29T02:13:47;101035.63;;;19.27;56.90
25510;BME280;13413;52.336;21.200;2022-07-29T02:18:18;101042.56;;;19.21;56.99
25510;BME280;13413;52.336;21.200;2022-07-29T02:22:45;101044.74;;;19.16;57.08
25510;BME280;13413;52.336;21.200;2022-07-29T02:31:42;101031.96;;;19.08;57.21
25510;BME280;13413;52.336;21.200;2022-07-29T02:36:32;101025.47;;;18.96;57.29
25510;BME280;13413;52.336;21.200;2022-07-29T02:40:03;101026.37;;;18.90;57.42
25510;BME280;13413;52.336;21.200;2022-07-29T02:44:30;101025.65;;;18.86;57.58
25510;BME280;13413;52.336;21.200;2022-07-29T02:49:02;101029.54;;;18.84;57.69
25510;BME280;13413;52.336;21.200;2022-07-29T02:53:30;101028.66;;;18.79;57.75
25510;BME280;13413;52.336;21.200;2022-07-29T02:58:03;101027.63;;;18.75;57.85
25510;BME280;13413;52.336;21.200;2022-07-29T03:02:35;101030.24;;;18.74;57.91
25510;BME280;13413;52.336;21.200;2022-07-29T03:07:05;101030.45;;;18.72;58.09
25510;BME280;13413;52.336;21.200;2022-07-29T03:11:32;101030.05;;;18.69;58.22
25510;BME280;13413;52.336;21.200;2022-07-29T03:16:00;101029.15;;;18.68;58.36
25510;BME280;13413;52.336;21.200;2022-07-29T03:20:27;101035.80;;;18.68;58.54
25510;BME280;13413;52.336;21.200;2022-07-29T03:24:55;101042.95;;;18.69;58.72
25510;BME280;13413;52.336;21.200;2022-07-29T03:29:23;101046.53;;;18.71;58.74
25510;BME280;13413;52.336;21.200;2022-07-29T03:33:50;101040.30;;;18.67;58.90
25510;BME280;13413;52.336;21.200;2022-07-29T03:38:17;101045.35;;;18.68;59.06
25510;BME280;13413;52.336;21.200;2022-07-29T03:42:45;101042.77;;;18.65;59.15
25510;BME280;13413;52.336;21.200;2022-07-29T03:47:12;101041.27;;;18.66;59.36
25510;BME280;13413;52.336;21.200;2022-07-29T03:51:41;101038.50;;;18.63;59.52
25510;BME280;13413;52.336;21.200;2022-07-29T03:56:11;101035.80;;;18.67;59.67
25510;BME280;13413;52.336;21.200;2022-07-29T04:00:38;101034.04;;;18.72;59.83
25510;BME280;13413;52.336;21.200;2022-07-29T04:05:07;101038.08;;;18.65;59.96
25510;BME280;13413;52.336;21.200;2022-07-29T04:09:37;101040.14;;;18.63;60.14
25510;BME280;13413;52.336;21.200;2022-07-29T04:14:04;101040.06;;;18.69;60.32
25510;BME280;13413;52.336;21.200;2022-07-29T04:18:30;101044.41;;;18.75;60.36
25510;BME280;13413;52.336;21.200;2022-07-29T04:22:57;101044.16;;;18.78;60.43
25510;BME280;13413;52.336;21.200;2022-07-29T04:27:25;101048.61;;;18.91;60.54
25510;BME280;13413;52.336;21.200;2022-07-29T04:31:52;101046.80;;;18.98;60.52
25510;BME280;13413;52.336;21.200;2022-07-29T04:36:18;101057.56;;;19.06;60.54
25510;BME280;13413;52.336;21.200;2022-07-29T04:40:45;101054.92;;;19.30;60.57
25510;BME280;13413;52.336;21.200;2022-07-29T04:45:13;101049.01;;;19.46;60.41
25510;BME280;13413;52.336;21.200;2022-07-29T04:49:41;101049.09;;;19.49;60.37
25510;BME280;13413;52.336;21.200;2022-07-29T04:54:07;101053.63;;;19.52;60.67
25510;BME280;13413;52.336;21.200;2022-07-29T04:58:37;101051.24;;;19.74;60.47
25510;BME280;13413;52.336;21.200;2022-07-29T05:03:03;101047.80;;;19.74;60.36
25510;BME280;13413;52.336;21.200;2022-07-29T05:06:23;101052.43;;;19.75;60.52
25510;BME280;13413;52.336;21.200;2022-07-29T05:13:01;101054.84;;;19.96;60.54
25510;BME280;13413;52.336;21.200;2022-07-29T05:16:20;101057.89;;;20.02;60.33
25510;BME280;13413;52.336;21.200;2022-07-29T05:19:40;101059.59;;;20.08;60.32
25510;BME280;13413;52.336;21.200;2022-07-29T05:23:01;101057.38;;;20.13;60.28
25510;BME280;13413;52.336;21.200;2022-07-29T05:26:21;101058.98;;;20.19;60.24
25510;BME280;13413;52.336;21.200;2022-07-29T05:29:41;101060.87;;;20.26;60.17
25510;BME280;13413;52.336;21.200;2022-07-29T05:33:00;101064.94;;;20.33;60.17
25510;BME280;13413;52.336;21.200;2022-07-29T05:36:20;101067.38;;;20.47;60.24
25510;BME280;13413;52.336;21.200;2022-07-29T05:39:39;101069.61;;;20.58;60.03
25510;BME280;13413;52.336;21.200;2022-07-29T05:42:58;101066.05;;;20.74;60.03
25510;BME280;13413;52.336;21.200;2022-07-29T05:46:17;101068.16;;;20.86;59.86
25510;BME280;13413;52.336;21.200;2022-07-29T05:49:36;101065.95;;;20.90;59.58
25510;BME280;13413;52.336;21.200;2022-07-29T05:52:56;101065.65;;;20.96;59.60
25510;BME280;13413;52.336;21.200;2022-07-29T05:56:15;101069.70;;;20.98;59.56
25510;BME280;13413;52.336;21.200;2022-07-29T05:59:38;101070.10;;;21.06;59.42
25510;BME280;13413;52.336;21.200;2022-07-29T06:02:57;101066.67;;;21.04;59.30
25510;BME280;13413;52.336;21.200;2022-07-29T06:06:17;101061.08;;;20.97;59.36
25510;BME280;13413;52.336;21.200;2022-07-29T06:09:36;101061.36;;;21.12;59.43
25510;BME280;13413;52.336;21.200;2022-07-29T06:12:56;101055.08;;;21.20;59.10
25510;BME280;13413;52.336;21.200;2022-07-29T06:16:15;101055.39;;;21.25;58.76
25510;BME280;13413;52.336;21.200;2022-07-29T06:19:36;101060.28;;;21.35;58.81
25510;BME280;13413;52.336;21.200;2022-07-29T06:22:56;101057.17;;;21.44;58.63
25510;BME280;13413;52.336;21.200;2022-07-29T06:26:16;101055.34;;;21.52;58.49
25510;BME280;13413;52.336;21.200;2022-07-29T06:29:36;101052.24;;;21.62;58.74
25510;BME280;13413;52.336;21.200;2022-07-29T06:32:55;101053.44;;;21.79;58.62
25510;BME280;13413;52.336;21.200;2022-07-29T06:36:15;101049.27;;;21.85;58.20
25510;BME280;13413;52.336;21.200;2022-07-29T06:39:35;101049.96;;;21.78;58.13
25510;BME280;13413;52.336;21.200;2022-07-29T06:42:55;101048.52;;;21.83;58.43
25510;BME280;13413;52.336;21.200;2022-07-29T06:46:15;101051.61;;;21.86;58.03
25510;BME280;13413;52.336;21.200;2022-07-29T06:49:34;101054.93;;;21.98;58.26
25510;BME280;13413;52.336;21.200;2022-07-29T06:52:54;101056.29;;;22.14;57.94
25510;BME280;13413;52.336;21.200;2022-07-29T06:56:14;101052.58;;;22.24;57.67
25510;BME280;13413;52.336;21.200;2022-07-29T06:59:34;101051.90;;;22.25;57.05
25510;BME280;13413;52.336;21.200;2022-07-29T07:02:53;101056.67;;;22.34;57.73
25510;BME280;13413;52.336;21.200;2022-07-29T07:06:12;101049.38;;;22.55;57.09
25510;BME280;13413;52.336;21.200;2022-07-29T07:09:31;101049.56;;;22.56;57.31
25510;BME280;13413;52.336;21.200;2022-07-29T07:12:51;101049.64;;;22.78;56.91
25510;BME280;13413;52.336;21.200;2022-07-29T07:16:10;101050.84;;;22.92;56.49
25510;BME280;13413;52.336;21.200;2022-07-29T07:19:29;101054.61;;;23.01;55.97
25510;BME280;13413;52.336;21.200;2022-07-29T07:22:49;101054.53;;;23.11;56.02
25510;BME280;13413;52.336;21.200;2022-07-29T07:26:09;101053.41;;;23.06;55.67
25510;BME280;13413;52.336;21.200;2022-07-29T07:29:29;101051.70;;;22.91;55.99
25510;BME280;13413;52.336;21.200;2022-07-29T07:32:48;101054.06;;;23.13;55.85
25510;BME280;13413;52.336;21.200;2022-07-29T07:36:08;101052.67;;;23.30;55.79
25510;BME280;13413;52.336;21.200;2022-07-29T07:39:27;101049.12;;;23.49;55.42
25510;BME280;13413;52.336;21.200;2022-07-29T07:42:47;101056.18;;;23.63;55.13
25510;BME280;13413;52.336;21.200;2022-07-29T07:46:06;101054.66;;;23.69;55.00
25510;BME280;13413;52.336;21.200;2022-07-29T07:49:25;101060.30;;;23.79;54.75
25510;BME280;13413;52.336;21.200;2022-07-29T07:52:50;101059.63;;;23.90;54.64
25510;BME280;13413;52.336;21.200;2022-07-29T07:56:12;101058.34;;;24.05;54.24
25510;BME280;13413;52.336;21.200;2022-07-29T07:59:33;101060.29;;;24.11;54.13
25510;BME280;13413;52.336;21.200;2022-07-29T08:02:52;101060.39;;;24.19;53.78
25510;BME280;13413;52.336;21.200;2022-07-29T08:09:30;101062.98;;;24.37;53.37
25510;BME280;13413;52.336;21.200;2022-07-29T08:12:51;101060.86;;;24.26;52.66
25510;BME280;13413;52.336;21.200;2022-07-29T08:16:10;101058.70;;;24.33;53.03
25510;BME280;13413;52.336;21.200;2022-07-29T08:19:30;101068.14;;;24.48;52.78
25510;BME280;13413;52.336;21.200;2022-07-29T08:22:50;101062.02;;;24.57;52.49
25510;BME280;13413;52.336;21.200;2022-07-29T08:26:11;101065.11;;;24.73;52.55
25510;BME280;13413;52.336;21.200;2022-07-29T08:29:30;101062.61;;;24.92;52.35
25510;BME280;13413;52.336;21.200;2022-07-29T08:32:50;101062.95;;;25.06;51.85
25510;BME280;13413;52.336;21.200;2022-07-29T08:36:11;101057.80;;;25.16;51.02
25510;BME280;13413;52.336;21.200;2022-07-29T08:39:30;101052.04;;;25.21;51.05
25510;BME280;13413;52.336;21.200;2022-07-29T08:42:51;101053.52;;;25.33;50.83
25510;BME280;13413;52.336;21.200;2022-07-29T08:46:09;101053.50;;;25.48;50.21
25510;BME280;13413;52.336;21.200;2022-07-29T08:49:29;101055.21;;;25.63;49.56
25510;BME280;13413;52.336;21.200;2022-07-29T08:52:48;101053.30;;;25.75;49.48
25510;BME280;13413;52.336;21.200;2022-07-29T08:56:08;101049.85;;;25.90;48.95
25510;BME280;13413;52.336;21.200;2022-07-29T08:59:31;101048.11;;;26.05;48.52
25510;BME280;13413;52.336;21.200;2022-07-29T09:02:57;101048.86;;;26.03;48.42
25510;BME280;13413;52.336;21.200;2022-07-29T09:06:19;101055.25;;;26.26;48.03
25510;BME280;13413;52.336;21.200;2022-07-29T09:09:39;101052.88;;;26.46;47.57
25510;BME280;13413;52.336;21.200;2022-07-29T09:13:00;101054.82;;;26.55;46.96
25510;BME280;13413;52.336;21.200;2022-07-29T09:16:19;101052.94;;;26.69;46.75
25510;BME280;13413;52.336;21.200;2022-07-29T09:19:38;101049.75;;;26.93;46.37
25510;BME280;13413;52.336;21.200;2022-07-29T09:23:06;101048.63;;;27.15;45.66
25510;BME280;13413;52.336;21.200;2022-07-29T09:26:29;101044.36;;;27.34;44.54
25510;BME280;13413;52.336;21.200;2022-07-29T09:29:56;101043.77;;;27.40;43.76
25510;BME280;13413;52.336;21.200;2022-07-29T09:33:16;101037.50;;;27.52;43.73
25510;BME280;13413;52.336;21.200;2022-07-29T09:36:42;101032.77;;;27.71;43.47
25510;BME280;13413;52.336;21.200;2022-07-29T09:40:13;101039.20;;;27.71;42.84
25510;BME280;13413;52.336;21.200;2022-07-29T09:43:31;101046.38;;;27.57;42.36
25510;BME280;13413;52.336;21.200;2022-07-29T09:46:59;101048.23;;;27.53;42.20
25510;BME280;13413;52.336;21.200;2022-07-29T09:50:19;101041.15;;;27.57;41.66
25510;BME280;13413;52.336;21.200;2022-07-29T09:53:39;101038.28;;;27.79;40.88
25510;BME280;13413;52.336;21.200;2022-07-29T09:56:59;101029.92;;;28.09;40.72
25510;BME280;13413;52.336;21.200;2022-07-29T10:00:20;101034.96;;;28.31;40.10
25510;BME280;13413;52.336;21.200;2022-07-29T10:03:53;101038.01;;;28.39;39.25
25510;BME280;13413;52.336;21.200;2022-07-29T10:07:12;101033.10;;;28.54;39.30
25510;BME280;13413;52.336;21.200;2022-07-29T10:10:32;101021.83;;;28.46;39.08
25510;BME280;13413;52.336;21.200;2022-07-29T10:14:10;101018.35;;;28.74;39.17
25510;BME280;13413;52.336;21.200;2022-07-29T10:17:29;101016.52;;;28.94;38.40
25510;BME280;13413;52.336;21.200;2022-07-29T10:20:50;101017.94;;;28.93;38.16
25510;BME280;13413;52.336;21.200;2022-07-29T10:24:10;101015.38;;;28.94;37.88
25510;BME280;13413;52.336;21.200;2022-07-29T10:27:30;101012.42;;;28.92;37.93
25510;BME280;13413;52.336;21.200;2022-07-29T10:30:50;101013.13;;;28.68;37.92
25510;BME280;13413;52.336;21.200;2022-07-29T10:34:16;101009.14;;;28.69;38.22
25510;BME280;13413;52.336;21.200;2022-07-29T10:37:52;101009.73;;;28.66;38.16
25510;BME280;13413;52.336;21.200;2022-07-29T10:41:39;101003.20;;;28.35;37.96
25510;BME280;13413;52.336;21.200;2022-07-29T10:45:04;101000.80;;;28.34;38.08
25510;BME280;13413;52.336;21.200;2022-07-29T10:48:22;100998.61;;;28.33;38.12
25510;BME280;13413;52.336;21.200;2022-07-29T10:52:03;101000.13;;;28.56;37.99
25510;BME280;13413;52.336;21.200;2022-07-29T10:55:35;100996.89;;;28.76;37.85
25510;BME280;13413;52.336;21.200;2022-07-29T10:59:25;101002.30;;;28.86;37.67
25510;BME280;13413;52.336;21.200;2022-07-29T11:02:47;100998.77;;;29.20;37.64
25510;BME280;13413;52.336;21.200;2022-07-29T11:06:08;100997.70;;;29.44;37.38
25510;BME280;13413;52.336;21.200;2022-07-29T11:09:27;100995.68;;;29.43;37.02
25510;BME280;13413;52.336;21.200;2022-07-29T11:12:48;100994.45;;;29.56;37.04
25510;BME280;13413;52.336;21.200;2022-07-29T11:16:09;100991.92;;;29.48;36.78
25510;BME280;13413;52.336;21.200;2022-07-29T11:19:27;100987.25;;;29.10;36.20
25510;BME280;13413;52.336;21.200;2022-07-29T11:22:48;100983.98;;;28.51;36.92
25510;BME280;13413;52.336;21.200;2022-07-29T11:26:17;100982.77;;;28.50;37.53
25510;BME280;13413;52.336;21.200;2022-07-29T11:29:40;100983.86;;;28.66;37.07
25510;BME280;13413;52.336;21.200;2022-07-29T11:33:35;100985.09;;;28.87;36.95
25510;BME280;13413;52.336;21.200;2022-07-29T11:37:22;100977.15;;;28.82;36.98
25510;BME280;13413;52.336;21.200;2022-07-29T11:40:41;100974.21;;;28.62;37.05
25510;BME280;13413;52.336;21.200;2022-07-29T11:44:00;100971.55;;;28.78;37.11
25510;BME280;13413;52.336;21.200;2022-07-29T11:47:23;100970.02;;;28.94;37.12
25510;BME280;13413;52.336;21.200;2022-07-29T11:50:42;100965.95;;;29.00;36.89
25510;BME280;13413;52.336;21.200;2022-07-29T11:54:02;100967.49;;;29.07;37.27
25510;BME280;13413;52.336;21.200;2022-07-29T11:57:23;100962.96;;;29.21;36.80
25510;BME280;13413;52.336;21.200;2022-07-29T12:00:47;100963.86;;;29.28;36.74
25510;BME280;13413;52.336;21.200;2022-07-29T12:04:07;100966.59;;;29.38;36.53
25510;BME280;13413;52.336;21.200;2022-07-29T12:07:30;100968.62;;;29.43;36.40
25510;BME280;13413;52.336;21.200;2022-07-29T12:10:51;100960.33;;;29.53;36.28
25510;BME280;13413;52.336;21.200;2022-07-29T12:14:26;100958.21;;;29.57;36.15
25510;BME280;13413;52.336;21.200;2022-07-29T12:17:46;100956.79;;;29.64;35.60
25510;BME280;13413;52.336;21.200;2022-07-29T12:21:07;100949.51;;;29.59;35.25
25510;BME280;13413;52.336;21.200;2022-07-29T12:24:27;100953.62;;;29.21;35.39
25510;BME280;13413;52.336;21.200;2022-07-29T12:28:04;100962.34;;;29.00;35.24
25510;BME280;13413;52.336;21.200;2022-07-29T12:31:23;100965.35;;;28.92;35.42
25510;BME280;13413;52.336;21.200;2022-07-29T12:34:43;100957.90;;;28.94;35.48
25510;BME280;13413;52.336;21.200;2022-07-29T12:38:05;100957.34;;;28.77;35.84
25510;BME280;13413;52.336;21.200;2022-07-29T12:41:24;100959.32;;;28.85;35.66
25510;BME280;13413;52.336;21.200;2022-07-29T12:44:48;100953.42;;;28.94;35.68
25510;BME280;13413;52.336;21.200;2022-07-29T12:48:09;100940.79;;;29.11;35.78
25510;BME280;13413;52.336;21.200;2022-07-29T12:51:34;100939.63;;;29.20;35.28
25510;BME280;13413;52.336;21.200;2022-07-29T12:54:53;100934.17;;;28.89;34.61
25510;BME280;13413;52.336;21.200;2022-07-29T12:58:13;100940.73;;;28.53;35.38
25510;BME280;13413;52.336;21.200;2022-07-29T13:01:37;100943.83;;;28.56;35.05
25510;BME280;13413;52.336;21.200;2022-07-29T13:04:59;100939.42;;;28.49;34.84
25510;BME280;13413;52.336;21.200;2022-07-29T13:08:19;100936.77;;;28.55;35.00
25510;BME280;13413;52.336;21.200;2022-07-29T13:11:40;100934.10;;;28.58;34.50
25510;BME280;13413;52.336;21.200;2022-07-29T13:15:00;100928.15;;;28.55;34.74
25510;BME280;13413;52.336;21.200;2022-07-29T13:18:30;100927.05;;;28.58;34.90
25510;BME280;13413;52.336;21.200;2022-07-29T13:21:51;100917.70;;;28.48;34.83
25510;BME280;13413;52.336;21.200;2022-07-29T13:25:13;100915.75;;;28.46;34.93
25510;BME280;13413;52.336;21.200;2022-07-29T13:28:32;100921.25;;;28.38;34.66
25510;BME280;13413;52.336;21.200;2022-07-29T13:31:52;100917.52;;;28.29;34.86
25510;BME280;13413;52.336;21.200;2022-07-29T13:35:15;100912.90;;;28.24;34.91
25510;BME280;13413;52.336;21.200;2022-07-29T13:38:35;100916.63;;;28.33;35.09
25510;BME280;13413;52.336;21.200;2022-07-29T13:41:54;100914.73;;;28.42;34.97
25510;BME280;13413;52.336;21.200;2022-07-29T13:45:17;100914.72;;;28.45;34.71
25510;BME280;13413;52.336;21.200;2022-07-29T13:48:36;100905.61;;;28.42;34.52
25510;BME280;13413;52.336;21.200;2022-07-29T13:51:55;100907.16;;;28.40;34.68
25510;BME280;13413;52.336;21.200;2022-07-29T13:55:16;100902.45;;;28.43;34.74
25510;BME280;13413;52.336;21.200;2022-07-29T13:58:36;100901.34;;;28.56;34.47
25510;BME280;13413;52.336;21.200;2022-07-29T14:01:55;100901.14;;;28.62;34.58
25510;BME280;13413;52.336;21.200;2022-07-29T14:08:33;100898.69;;;28.63;34.33
25510;BME280;13413;52.336;21.200;2022-07-29T14:11:53;100893.50;;;28.64;34.48
25510;BME280;13413;52.336;21.200;2022-07-29T14:15:12;100894.64;;;28.77;34.28
25510;BME280;13413;52.336;21.200;2022-07-29T14:18:32;100889.80;;;28.82;33.93
25510;BME280;13413;52.336;21.200;2022-07-29T14:21:51;100886.13;;;28.84;34.13
25510;BME280;13413;52.336;21.200;2022-07-29T14:25:10;100888.43;;;28.83;34.27
25510;BME280;13413;52.336;21.200;2022-07-29T14:28:30;100885.55;;;28.80;34.02
25510;BME280;13413;52.336;21.200;2022-07-29T14:31:49;100880.52;;;28.67;33.33
25510;BME280;13413;52.336;21.200;2022-07-29T14:35:09;100877.89;;;28.62;33.44
25510;BME280;13413;52.336;21.200;2022-07-29T14:38:28;100874.13;;;28.60;33.23
25510;BME280;13413;52.336;21.200;2022-07-29T14:41:48;100873.88;;;28.47;33.48
25510;BME280;13413;52.336;21.200;2022-07-29T14:45:09;100871.67;;;28.39;33.25
25510;BME280;13413;52.336;21.200;2022-07-29T14:48:28;100867.17;;;28.23;33.38
25510;BME280;13413;52.336;21.200;2022-07-29T14:51:47;100860.52;;;28.09;33.46
25510;BME280;13413;52.336;21.200;2022-07-29T14:55:07;100860.56;;;28.11;33.47
25510;BME280;13413;52.336;21.200;2022-07-29T14:58:26;100855.74;;;28.15;33.45
25510;BME280;13413;52.336;21.200;2022-07-29T15:01:45;100856.16;;;28.21;33.63
25510;BME280;13413;52.336;21.200;2022-07-29T15:05:06;100857.21;;;28.29;33.53
25510;BME280;13413;52.336;21.200;2022-07-29T15:08:27;100850.64;;;28.25;33.07
25510;BME280;13413;52.336;21.200;2022-07-29T15:11:47;100848.14;;;28.22;33.63
25510;BME280;13413;52.336;21.200;2022-07-29T15:15:08;100841.63;;;28.14;33.53
25510;BME280;13413;52.336;21.200;2022-07-29T15:21:48;100839.61;;;28.13;33.39
25510;BME280;13413;52.336;21.200;2022-07-29T15:25:09;100837.13;;;28.19;33.46
25510;BME280;13413;52.336;21.200;2022-07-29T15:28:28;100830.48;;;28.14;33.18
25510;BME280;13413;52.336;21.200;2022-07-29T15:32:08;100827.48;;;28.00;33.61
25510;BME280;13413;52.336;21.200;2022-07-29T15:35:27;100828.16;;;27.91;33.97
25510;BME280;13413;52.336;21.200;2022-07-29T15:38:47;100822.91;;;27.96;34.22
25510;BME280;13413;52.336;21.200;2022-07-29T15:42:06;100823.59;;;28.01;34.04
25510;BME280;13413;52.336;21.200;2022-07-29T15:45:25;100819.76;;;27.93;33.81
25510;BME280;13413;52.336;21.200;2022-07-29T15:48:44;100816.40;;;27.89;33.82
25510;BME280;13413;52.336;21.200;2022-07-29T15:52:04;100816.39;;;27.90;33.76
25510;BME280;13413;52.336;21.200;2022-07-29T15:55:24;100811.17;;;27.97;33.83
25510;BME280;13413;52.336;21.200;2022-07-29T15:58:44;100809.13;;;28.01;33.65
25510;BME280;13413;52.336;21.200;2022-07-29T16:02:03;100803.66;;;27.92;33.80
25510;BME280;13413;52.336;21.200;2022-07-29T16:05:22;100802.26;;;27.77;33.65
25510;BME280;13413;52.336;21.200;2022-07-29T16:08:41;100800.29;;;27.63;33.62
25510;BME280;13413;52.336;21.200;2022-07-29T16:12:00;100800.67;;;27.61;33.82
25510;BME280;13413;52.336;21.200;2022-07-29T16:15:19;100802.36;;;27.62;33.90
25510;BME280;13413;52.336;21.200;2022-07-29T16:18:38;100799.19;;;27.66;33.91
25510;BME280;13413;52.336;21.200;2022-07-29T16:21:57;100800.66;;;27.65;33.93
25510;BME280;13413;52.336;21.200;2022-07-29T16:25:16;100796.67;;;27.66;33.89
25510;BME280;13413;52.336;21.200;2022-07-29T16:28:36;100796.52;;;27.63;33.93
25510;BME280;13413;52.336;21.200;2022-07-29T16:31:55;100794.83;;;27.65;33.96
25510;BME280;13413;52.336;21.200;2022-07-29T16:35:15;100789.52;;;27.70;34.07
25510;BME280;13413;52.336;21.200;2022-07-29T16:38:34;100791.15;;;27.71;33.98
25510;BME280;13413;52.336;21.200;2022-07-29T16:41:54;100788.52;;;27.59;34.23
25510;BME280;13413;52.336;21.200;2022-07-29T16:45:13;100787.89;;;27.52;34.35
25510;BME280;13413;52.336;21.200;2022-07-29T16:48:32;100789.10;;;27.50;34.35
25510;BME280;13413;52.336;21.200;2022-07-29T16:51:51;100792.23;;;27.44;34.53
25510;BME280;13413;52.336;21.200;2022-07-29T16:55:11;100794.88;;;27.34;34.97
25510;BME280;13413;52.336;21.200;2022-07-29T16:58:30;100795.48;;;27.28;35.28
25510;BME280;13413;52.336;21.200;2022-07-29T17:01:49;100800.94;;;27.27;35.60
25510;BME280;13413;52.336;21.200;2022-07-29T17:05:10;100808.89;;;27.31;35.82
25510;BME280;13413;52.336;21.200;2022-07-29T17:08:30;100809.54;;;27.29;35.90
25510;BME280;13413;52.336;21.200;2022-07-29T17:11:50;100809.76;;;27.28;35.91
25510;BME280;13413;52.336;21.200;2022-07-29T17:15:11;100810.49;;;27.23;35.96
25510;BME280;13413;52.336;21.200;2022-07-29T17:18:30;100808.37;;;27.19;36.03
25510;BME280;13413;52.336;21.200;2022-07-29T17:25:22;100806.63;;;27.05;36.12
25510;BME280;13413;52.336;21.200;2022-07-29T17:28:43;100805.98;;;27.04;36.39
25510;BME280;13413;52.336;21.200;2022-07-29T17:32:03;100808.36;;;27.04;36.36
25510;BME280;13413;52.336;21.200;2022-07-29T17:35:22;100812.40;;;27.04;36.76
25510;BME280;13413;52.336;21.200;2022-07-29T17:38:41;100811.71;;;27.00;36.83
25510;BME280;13413;52.336;21.200;2022-07-29T17:42:00;100811.88;;;26.97;37.00
25510;BME280;13413;52.336;21.200;2022-07-29T17:45:20;100806.48;;;26.92;37.06
25510;BME280;13413;52.336;21.200;2022-07-29T17:48:40;100806.59;;;26.86;37.13
25510;BME280;13413;52.336;21.200;2022-07-29T17:51:59;100807.48;;;26.83;37.38
25510;BME280;13413;52.336;21.200;2022-07-29T17:55:18;100809.39;;;26.79;37.21
25510;BME280;13413;52.336;21.200;2022-07-29T17:58:38;100810.95;;;26.68;37.24
25510;BME280;13413;52.336;21.200;2022-07-29T18:01:57;100812.95;;;26.58;37.36
25510;BME280;13413;52.336;21.200;2022-07-29T18:05:17;100814.35;;;26.50;37.51
25510;BME280;13413;52.336;21.200;2022-07-29T18:08:38;100813.80;;;26.45;37.63
25510;BME280;13413;52.336;21.200;2022-07-29T18:11:58;100806.27;;;26.36;37.73
25510;BME280;13413;52.336;21.200;2022-07-29T18:15:17;100812.36;;;26.34;37.83
25510;BME280;13413;52.336;21.200;2022-07-29T18:18:36;100812.63;;;26.29;37.99
25510;BME280;13413;52.336;21.200;2022-07-29T18:21:55;100812.71;;;26.24;38.07
25510;BME280;13413;52.336;21.200;2022-07-29T18:25:14;100811.08;;;26.14;38.13
25510;BME280;13413;52.336;21.200;2022-07-29T18:28:34;100807.39;;;26.02;38.10
25510;BME280;13413;52.336;21.200;2022-07-29T18:31:53;100813.60;;;25.91;38.09
25510;BME280;13413;52.336;21.200;2022-07-29T18:35:13;100813.82;;;25.77;38.16
25510;BME280;13413;52.336;21.200;2022-07-29T18:38:33;100821.81;;;25.67;38.25
25510;BME280;13413;52.336;21.200;2022-07-29T18:41:53;100820.20;;;25.62;38.39
25510;BME280;13413;52.336;21.200;2022-07-29T18:45:12;100819.52;;;25.55;38.42
25510;BME280;13413;52.336;21.200;2022-07-29T18:48:32;100819.70;;;25.48;38.45
25510;BME280;13413;52.336;21.200;2022-07-29T18:51:52;100820.61;;;25.44;38.52